West Suffield, Connecticut
Current Conditions -  °F | °C
As of 12:51 PM on Thursday 29 Jan 2015 (Local Time) from KBDL Reporting Station
Broken Clouds Broken Clouds  
Wind Chill: 24°   Ceiling: 25000
Heat Index: 24°   Visibility: 10mi
Dew Point:   Wind: 0mph
Humidity: 38%   Direction: NA
Pressure: 30.23"   Gusts: NA
Location:  41.99°N, 72.69°W
Report Text: KBDL 291751Z 00000KT 10SM BKN250 M04/M17 A3023 RMK AO2 SLP240 4/010 T10441167 11039 21178 58032
Loading
Personal Weather Stations






























Interactive Weather Map New forecast layout! Learn more

10-Day Weather Forecast

Advertisements
Track Severe Weather on mobile